Time;durP1;ratioP1;P1;durP2;ratioP2;P2;SDS_P1;SDS_P2;PMS_P1;PMS_P2;Temp;Humidity;BMP_temperature;BMP_pressure;BME280_temperature;BME280_humidity;BME280_pressure;Samples;Min_cycle;Max_cycle;Signal;HPM_P1;HPM_P2
2023/01/20 00:01:12;;;;;;;9.43;3.47;;;1.10;99.90;;;;;;5027536;28;20124;-68
2023/01/20 00:03:39;;;;;;;12.10;3.22;;;1.10;99.90;;;;;;5023232;28;20045;-68
2023/01/20 00:06:06;;;;;;;5.75;3.00;;;1.10;99.90;;;;;;5026329;28;20042;-68
2023/01/20 00:08:33;;;;;;;5.30;2.53;;;1.10;99.90;;;;;;5024720;28;20230;-68
2023/01/20 00:11:04;;;;;;;6.10;2.80;;;1.10;99.90;;;;;;5016657;28;20049;-68
2023/01/20 00:13:31;;;;;;;9.50;4.28;;;1.10;99.90;;;;;;5024159;28;20045;-68
2023/01/20 00:15:58;;;;;;;7.53;2.65;;;1.10;99.90;;;;;;5021965;28;20128;-69
2023/01/20 00:18:25;;;;;;;6.82;2.85;;;1.10;99.90;;;;;;5021430;28;20133;-68
2023/01/20 00:20:51;;;;;;;8.98;3.83;;;1.10;99.90;;;;;;5023856;28;20061;-68
2023/01/20 00:23:18;;;;;;;7.47;3.05;;;1.00;99.90;;;;;;5025548;28;20049;-70
2023/01/20 00:25:45;;;;;;;7.75;4.32;;;1.00;99.90;;;;;;5023930;28;20137;-70
2023/01/20 00:28:12;;;;;;;11.98;4.00;;;1.00;99.90;;;;;;5026078;28;20057;-69
2023/01/20 00:30:40;;;;;;;7.97;2.70;;;0.90;99.90;;;;;;5018324;28;20056;-67
2023/01/20 00:33:07;;;;;;;6.60;2.90;;;0.90;99.90;;;;;;5023610;28;20046;-68
2023/01/20 00:35:36;;;;;;;6.82;3.22;;;0.80;99.90;;;;;;5021826;28;20069;-68
2023/01/20 00:38:03;;;;;;;8.70;2.33;;;0.80;99.90;;;;;;5026856;28;20132;-70
2023/01/20 00:40:29;;;;;;;7.97;2.53;;;0.80;99.90;;;;;;5033137;28;20073;-68
2023/01/20 00:42:56;;;;;;;6.57;3.20;;;1.10;99.90;;;;;;5028023;28;20045;-68
2023/01/20 00:45:23;;;;;;;7.43;2.22;;;0.70;99.90;;;;;;5015677;28;20046;-68
2023/01/20 00:47:49;;;;;;;5.57;2.72;;;0.70;99.90;;;;;;5023305;28;20585;-68
2023/01/20 00:50:16;;;;;;;5.00;3.00;;;0.70;99.90;;;;;;5023702;28;20094;-68
2023/01/20 00:52:43;;;;;;;9.05;3.25;;;0.70;99.90;;;;;;5028463;28;20069;-68
2023/01/20 00:55:09;;;;;;;7.65;3.17;;;0.70;99.90;;;;;;5023431;28;20056;-68
2023/01/20 00:57:37;;;;;;;4.88;2.00;;;0.70;99.90;;;;;;5017383;28;20129;-68
2023/01/20 01:00:04;;;;;;;3.58;2.25;;;0.70;99.90;;;;;;5019454;28;20519;-68
2023/01/20 01:02:31;;;;;;;6.10;2.30;;;0.70;99.90;;;;;;5027860;28;20081;-68
2023/01/20 01:04:57;;;;;;;4.95;2.45;;;0.60;99.90;;;;;;5022890;28;20081;-68
2023/01/20 01:07:24;;;;;;;5.63;2.33;;;0.60;99.90;;;;;;5013720;28;20057;-68
2023/01/20 01:09:51;;;;;;;12.80;3.83;;;0.60;99.90;;;;;;5027403;28;20053;-68
2023/01/20 01:12:18;;;;;;;9.13;2.80;;;0.60;99.90;;;;;;5024201;28;20046;-67
2023/01/20 01:14:45;;;;;;;6.28;2.45;;;0.60;99.90;;;;;;5027783;28;20049;-68
2023/01/20 01:17:11;;;;;;;8.43;2.72;;;0.60;99.90;;;;;;5022782;28;20053;-68
2023/01/20 01:19:38;;;;;;;6.93;2.63;;;0.60;99.90;;;;;;5027903;28;20076;-68
2023/01/20 01:22:05;;;;;;;9.05;3.17;;;0.60;99.90;;;;;;5015769;28;20068;-68
2023/01/20 01:24:32;;;;;;;11.10;2.60;;;0.70;99.90;;;;;;5016065;28;20056;-68
2023/01/20 01:26:58;;;;;;;10.55;2.75;;;0.70;99.90;;;;;;5018691;28;20042;-68
2023/01/20 01:29:25;;;;;;;8.10;2.67;;;0.70;99.90;;;;;;5026822;28;20500;-68
2023/01/20 01:31:52;;;;;;;9.00;3.55;;;0.70;99.90;;;;;;5021507;28;20051;-68
2023/01/20 01:34:18;;;;;;;6.68;2.75;;;0.70;99.90;;;;;;5027505;28;20361;-68
2023/01/20 01:36:45;;;;;;;13.63;3.63;;;0.80;99.90;;;;;;5022354;28;20049;-68
2023/01/20 01:39:12;;;;;;;8.25;2.40;;;0.80;99.90;;;;;;5027603;28;20053;-68
2023/01/20 01:41:39;;;;;;;5.97;2.45;;;0.80;99.90;;;;;;5026866;28;20049;-68
2023/01/20 01:44:10;;;;;;;8.77;2.35;;;0.90;99.90;;;;;;5021276;28;20055;-68
2023/01/20 01:46:37;;;;;;;6.47;2.40;;;0.90;99.90;;;;;;5015170;28;20073;-68
2023/01/20 01:49:09;;;;;;;4.38;2.30;;;1.00;99.90;;;;;;5019685;28;20063;-67
2023/01/20 01:51:57;;;;;;;8.88;2.55;;;1.00;99.90;;;;;;4680663;28;10000555;-67
2023/01/20 01:54:28;;;;;;;10.30;2.90;;;1.00;99.90;;;;;;5017488;28;20492;-70
2023/01/20 01:56:54;;;;;;;6.28;2.47;;;1.00;99.90;;;;;;5028764;28;20053;-69
2023/01/20 01:59:21;;;;;;;5.57;1.80;;;1.00;99.90;;;;;;5018381;28;20053;-70
2023/01/20 02:01:49;;;;;;;5.50;1.80;;;1.10;99.90;;;;;;5029187;28;20067;-69
2023/01/20 02:04:24;;;;;;;6.88;2.17;;;1.10;99.90;;;;;;5035340;28;20443;-69
2023/01/20 02:07:11;;;;;;;6.43;2.00;;;1.10;99.90;;;;;;5029392;28;20510;-69
2023/01/20 02:09:38;;;;;;;6.05;2.88;;;1.10;99.90;;;;;;5015348;28;20132;-70
2023/01/20 02:12:07;;;;;;;11.32;2.10;;;1.10;99.90;;;;;;5029781;28;20538;-70
2023/01/20 02:14:37;;;;;;;6.25;1.90;;;1.10;99.90;;;;;;5026056;28;20045;-69
2023/01/20 02:17:18;;;;;;;9.43;2.05;;;1.10;99.90;;;;;;5011859;28;20128;-70
2023/01/20 02:20:09;;;;;;;7.28;1.70;;;1.10;99.90;;;;;;5027389;28;20420;-69
2023/01/20 02:22:54;;;;;;;9.10;2.35;;;1.10;99.90;;;;;;5028220;28;20129;-69
2023/01/20 02:25:24;;;;;;;7.78;1.92;;;1.10;99.90;;;;;;5027675;28;20149;-69
2023/01/20 02:28:11;;;;;;;2.75;2.05;;;1.00;99.90;;;;;;5027211;28;20041;-69
2023/01/20 02:30:42;;;;;;;4.75;1.83;;;1.00;99.90;;;;;;5020284;28;20480;-69
2023/01/20 02:33:14;;;;;;;8.40;2.20;;;1.00;99.90;;;;;;5026002;28;20058;-69
2023/01/20 02:35:57;;;;;;;5.55;2.13;;;0.90;99.90;;;;;;5025203;28;20046;-68
2023/01/20 02:38:36;;;;;;;21.05;2.17;;;0.90;99.90;;;;;;5010987;28;20139;-69
2023/01/20 02:41:21;;;;;;;3.08;1.55;;;0.90;99.90;;;;;;5020824;28;20056;-69
2023/01/20 02:44:03;;;;;;;4.30;1.92;;;0.90;99.90;;;;;;5025965;28;20515;-69
2023/01/20 02:46:37;;;;;;;3.72;1.50;;;0.80;99.90;;;;;;5017469;28;20495;-69
2023/01/20 02:49:14;;;;;;;3.58;1.45;;;0.80;99.90;;;;;;5032628;28;20571;-70
2023/01/20 02:52:12;;;;;;;4.95;1.38;;;0.70;99.90;;;;;;5024292;28;20049;-69
2023/01/20 02:54:39;;;;;;;8.30;2.00;;;0.70;99.90;;;;;;5025873;28;20059;-68
2023/01/20 02:57:07;;;;;;;9.10;2.10;;;0.70;99.90;;;;;;5027720;28;20045;-69
2023/01/20 02:59:36;;;;;;;3.70;1.83;;;0.70;99.90;;;;;;5024106;28;20058;-68
2023/01/20 03:02:14;;;;;;;5.38;1.10;;;0.70;99.90;;;;;;5005626;28;20053;-68
2023/01/20 03:04:46;;;;;;;6.18;1.75;;;0.60;99.90;;;;;;5009234;28;20549;-68
2023/01/20 03:07:13;;;;;;;6.78;2.30;;;0.60;99.90;;;;;;5015293;28;20050;-68
2023/01/20 03:09:43;;;;;;;5.15;1.70;;;0.80;99.90;;;;;;5020139;28;20128;-68
2023/01/20 03:12:22;;;;;;;5.13;1.90;;;0.60;99.90;;;;;;5019394;28;20055;-69
2023/01/20 03:14:50;;;;;;;5.32;1.90;;;0.60;99.90;;;;;;5026252;28;20053;-68
2023/01/20 03:17:20;;;;;;;3.05;1.38;;;0.60;99.90;;;;;;5001303;28;20076;-70
2023/01/20 03:19:47;;;;;;;6.13;2.30;;;0.60;99.90;;;;;;5029958;28;20137;-68
2023/01/20 03:22:14;;;;;;;4.57;1.58;;;0.60;99.90;;;;;;5017208;28;20053;-69
2023/01/20 03:24:41;;;;;;;5.97;1.75;;;0.70;99.90;;;;;;5027063;28;20492;-69
2023/01/20 03:27:09;;;;;;;5.60;1.90;;;0.70;99.90;;;;;;5024160;28;20532;-68
2023/01/20 03:29:36;;;;;;;10.32;1.67;;;0.80;99.90;;;;;;5028044;28;20065;-67
2023/01/20 03:32:04;;;;;;;6.57;1.63;;;0.70;99.90;;;;;;5020990;28;20565;-67
2023/01/20 03:34:32;;;;;;;5.95;1.20;;;0.70;99.90;;;;;;5016792;28;20052;-68
2023/01/20 03:36:59;;;;;;;5.60;1.00;;;0.70;99.90;;;;;;5020184;28;20071;-69
2023/01/20 03:39:25;;;;;;;6.50;1.23;;;0.80;99.90;;;;;;5025913;28;20410;-66
2023/01/20 03:42:12;;;;;;;8.10;1.52;;;0.80;99.90;;;;;;5023177;28;20588;-68
2023/01/20 03:44:58;;;;;;;3.08;1.50;;;0.80;99.90;;;;;;5037251;28;20123;-68
2023/01/20 03:47:51;;;;;;;6.43;1.42;;;0.80;99.90;;;;;;5019934;28;20507;-68
2023/01/20 03:50:54;;;;;;;8.98;1.88;;;0.80;99.90;;;;;;5007280;28;20057;-68
2023/01/20 03:53:32;;;;;;;9.98;2.65;;;0.80;99.90;;;;;;4988782;28;20053;-68
2023/01/20 03:56:09;;;;;;;5.05;1.17;;;0.80;99.90;;;;;;5026536;28;20051;-68
2023/01/20 03:58:37;;;;;;;6.57;1.70;;;0.80;99.90;;;;;;5030629;28;20052;-69
2023/01/20 04:01:06;;;;;;;8.00;1.30;;;0.80;99.90;;;;;;5028742;28;20097;-68
2023/01/20 04:03:45;;;;;;;4.55;1.20;;;0.80;99.90;;;;;;5018969;28;20057;-68
2023/01/20 04:06:12;;;;;;;8.75;1.50;;;0.80;99.90;;;;;;5040430;28;20103;-67
2023/01/20 04:08:58;;;;;;;8.20;1.25;;;0.80;99.90;;;;;;5023168;28;20041;-70
2023/01/20 04:11:26;;;;;;;5.13;1.80;;;0.80;99.90;;;;;;5026871;28;20061;-69
2023/01/20 04:13:53;;;;;;;4.05;1.15;;;0.80;99.90;;;;;;5019321;28;20056;-67
2023/01/20 04:16:20;;;;;;;5.38;3.00;;;0.80;99.90;;;;;;5026434;28;20052;-67
2023/01/20 04:18:48;;;;;;;5.15;1.70;;;1.30;99.90;;;;;;5023838;28;20056;-67
2023/01/20 04:21:22;;;;;;;1.92;1.20;;;0.80;99.90;;;;;;5028329;28;20038;-70
2023/01/20 04:24:06;;;;;;;;;;;0.80;99.90;;;;;;5027661;28;20057;-69
2023/01/20 04:26:32;;;;;;;5.60;1.55;;;0.80;99.90;;;;;;5025894;28;19925;-69
2023/01/20 04:29:07;;;;;;;11.40;1.70;;;0.80;99.90;;;;;;5016764;28;20700;-68
2023/01/20 04:31:36;;;;;;;5.10;1.20;;;0.80;99.90;;;;;;5009288;28;20141;-69
2023/01/20 04:34:03;;;;;;;3.55;1.48;;;0.80;99.90;;;;;;5023328;28;20108;-68
2023/01/20 04:36:30;;;;;;;4.03;1.17;;;0.70;99.90;;;;;;5011599;28;20053;-69
2023/01/20 04:38:57;;;;;;;12.00;2.03;;;0.70;99.90;;;;;;5013445;28;20053;-68
2023/01/20 04:41:23;;;;;;;8.32;1.25;;;0.80;99.90;;;;;;5023819;28;20496;-69
2023/01/20 04:43:50;;;;;;;6.28;1.77;;;0.70;99.90;;;;;;5024188;28;20045;-69
2023/01/20 04:46:17;;;;;;;10.98;1.40;;;0.80;99.90;;;;;;5028100;28;20056;-69
2023/01/20 04:48:45;;;;;;;2.92;1.48;;;0.80;99.90;;;;;;5027257;28;20049;-68
2023/01/20 04:51:11;;;;;;;1.67;1.00;;;0.70;99.90;;;;;;5027820;28;20724;-68
2023/01/20 04:53:38;;;;;;;4.47;1.90;;;0.70;99.90;;;;;;5024176;28;20045;-69
2023/01/20 04:56:12;;;;;;;5.90;1.65;;;0.70;99.90;;;;;;5028037;28;20046;-69
2023/01/20 04:58:39;;;;;;;;;;;0.70;99.90;;;;;;5023842;28;20072;-69
2023/01/20 05:01:06;;;;;;;6.57;1.02;;;0.70;99.90;;;;;;5026999;28;20364;-68
2023/01/20 05:03:33;;;;;;;3.15;1.70;;;0.60;99.90;;;;;;5023852;28;20046;-69
2023/01/20 05:06:00;;;;;;;1.23;0.68;;;0.60;99.90;;;;;;5020291;28;20049;-68
2023/01/20 05:08:26;;;;;;;5.55;1.52;;;0.60;99.90;;;;;;5026162;28;20034;-69
2023/01/20 05:10:53;;;;;;;6.50;1.40;;;0.60;99.90;;;;;;5017395;28;20072;-68
2023/01/20 05:13:20;;;;;;;6.47;0.95;;;0.60;99.90;;;;;;5025644;28;20049;-68
2023/01/20 05:15:46;;;;;;;4.70;1.42;;;0.60;99.90;;;;;;5027356;28;20054;-68
2023/01/20 05:18:13;;;;;;;2.10;1.02;;;0.60;99.90;;;;;;5031132;28;20103;-68
2023/01/20 05:20:40;;;;;;;16.65;1.88;;;0.60;99.90;;;;;;5017590;28;20053;-68
2023/01/20 05:23:07;;;;;;;9.80;1.33;;;0.50;99.90;;;;;;5028285;28;20757;-68
2023/01/20 05:25:33;;;;;;;7.47;1.85;;;0.60;99.90;;;;;;5044361;28;20053;-68
2023/01/20 05:28:00;;;;;;;4.22;1.17;;;0.60;99.90;;;;;;5031256;28;20132;-68
2023/01/20 05:30:27;;;;;;;3.17;1.17;;;0.60;99.90;;;;;;5026065;28;20051;-68
2023/01/20 05:32:54;;;;;;;3.95;1.70;;;0.60;99.90;;;;;;5024516;28;20042;-68
2023/01/20 05:35:20;;;;;;;7.00;1.40;;;0.50;99.90;;;;;;5016670;28;20053;-69
2023/01/20 05:37:51;;;;;;;5.10;1.33;;;0.50;99.90;;;;;;5031705;28;20107;-68
2023/01/20 05:40:17;;;;;;;2.85;1.10;;;0.50;99.90;;;;;;5025131;28;20046;-68
2023/01/20 05:42:44;;;;;;;7.25;0.95;;;0.40;99.90;;;;;;5031114;28;20057;-68
2023/01/20 05:45:11;;;;;;;3.53;1.17;;;0.40;99.90;;;;;;5026663;28;20124;-69
2023/01/20 05:47:38;;;;;;;7.47;1.55;;;0.50;99.90;;;;;;5030027;28;20038;-68
2023/01/20 05:50:05;;;;;;;6.75;1.67;;;0.40;99.90;;;;;;5027983;28;20054;-69
2023/01/20 05:52:32;;;;;;;6.05;1.35;;;0.40;99.90;;;;;;5031235;28;20053;-68
2023/01/20 05:54:58;;;;;;;6.00;1.38;;;0.40;99.90;;;;;;5026938;28;20076;-68
2023/01/20 05:57:25;;;;;;;6.88;1.33;;;0.40;99.90;;;;;;5037559;28;20049;-68
2023/01/20 05:59:54;;;;;;;7.07;1.63;;;0.40;99.90;;;;;;5013592;28;20049;-69
2023/01/20 06:02:21;;;;;;;6.30;1.02;;;0.40;99.90;;;;;;5027086;28;20052;-68
2023/01/20 06:04:48;;;;;;;7.95;2.13;;;0.40;99.90;;;;;;5028897;28;20049;-68
2023/01/20 06:07:14;;;;;;;3.33;1.23;;;0.40;99.90;;;;;;5019272;28;20128;-68
2023/01/20 06:09:41;;;;;;;3.30;1.45;;;0.30;99.90;;;;;;5030845;28;20487;-68
2023/01/20 06:12:08;;;;;;;4.18;1.48;;;0.30;99.90;;;;;;5026042;28;20053;-68
2023/01/20 06:14:35;;;;;;;3.80;1.67;;;0.30;99.90;;;;;;5031045;28;20067;-68
2023/01/20 06:17:01;;;;;;;4.40;1.25;;;0.30;99.90;;;;;;5029152;28;20053;-68
2023/01/20 06:19:28;;;;;;;5.97;1.75;;;0.30;99.90;;;;;;5006979;28;20053;-69
2023/01/20 06:21:55;;;;;;;3.05;1.35;;;0.30;99.90;;;;;;5020563;28;20065;-69
2023/01/20 06:24:21;;;;;;;10.05;1.13;;;0.30;99.90;;;;;;5019693;28;20056;-69
2023/01/20 06:26:51;;;;;;;6.75;1.10;;;0.40;99.90;;;;;;5026215;28;20053;-69
2023/01/20 06:29:18;;;;;;;5.38;1.20;;;0.40;99.90;;;;;;5028336;28;20591;-70
2023/01/20 06:31:45;;;;;;;5.90;1.60;;;0.40;99.90;;;;;;5024580;28;20053;-68
2023/01/20 06:34:12;;;;;;;4.82;1.42;;;0.30;99.90;;;;;;5021160;28;20060;-68
2023/01/20 06:36:39;;;;;;;5.32;1.23;;;0.30;99.90;;;;;;5025607;28;20052;-68
2023/01/20 06:39:05;;;;;;;11.30;1.58;;;0.40;99.90;;;;;;5023994;28;20037;-68
2023/01/20 06:41:32;;;;;;;11.38;1.55;;;0.40;99.90;;;;;;5027837;28;20128;-69
2023/01/20 06:43:59;;;;;;;4.93;1.38;;;0.40;99.90;;;;;;5028157;28;20041;-68
2023/01/20 06:46:26;;;;;;;5.47;1.38;;;1.20;99.90;;;;;;5028881;28;20045;-68
2023/01/20 06:48:59;;;;;;;10.63;1.23;;;0.30;99.90;;;;;;4668175;28;10000031;-67
2023/01/20 06:51:27;;;;;;;8.88;1.45;;;0.30;99.90;;;;;;5025802;28;20065;-68
2023/01/20 06:53:54;;;;;;;21.63;2.58;;;0.40;99.90;;;;;;5024991;28;20056;-67
2023/01/20 06:56:21;;;;;;;9.57;1.70;;;0.30;99.90;;;;;;5025210;28;20063;-71
2023/01/20 06:58:48;;;;;;;8.15;1.77;;;0.30;99.90;;;;;;5018768;28;20071;-68
2023/01/20 07:01:24;;;;;;;4.97;1.20;;;0.30;99.90;;;;;;5025715;28;20555;-69
2023/01/20 07:03:51;;;;;;;8.40;1.33;;;0.30;99.90;;;;;;5018323;28;20092;-68
2023/01/20 07:06:27;;;;;;;18.60;2.88;;;0.40;99.90;;;;;;5025780;28;20047;-68
2023/01/20 07:08:54;;;;;;;7.10;2.08;;;0.40;99.90;;;;;;5012888;28;20488;-68
2023/01/20 07:11:24;;;;;;;8.40;1.30;;;0.40;99.90;;;;;;5017624;28;20064;-69
2023/01/20 07:13:50;;;;;;;7.90;3.85;;;0.30;99.90;;;;;;5021855;28;20065;-68
2023/01/20 07:16:17;;;;;;;7.88;2.35;;;0.30;99.90;;;;;;5022463;28;20045;-68
2023/01/20 07:18:47;;;;;;;5.18;1.45;;;0.30;99.90;;;;;;5025245;28;20616;-68
2023/01/20 07:21:13;;;;;;;6.60;1.38;;;0.30;99.90;;;;;;5028461;28;20248;-68
2023/01/20 07:23:40;;;;;;;3.47;1.42;;;0.30;99.90;;;;;;5027059;28;20057;-68
2023/01/20 07:26:09;;;;;;;7.57;2.13;;;0.30;99.90;;;;;;5027924;28;20132;-68
2023/01/20 07:28:35;;;;;;;6.50;1.88;;;0.40;99.90;;;;;;5017877;28;20053;-67
2023/01/20 07:31:26;;;;;;;6.32;2.45;;;0.40;99.90;;;;;;5027580;28;20152;-69
2023/01/20 07:33:55;;;;;;;5.35;1.90;;;0.40;99.90;;;;;;5016433;28;20041;-69
2023/01/20 07:36:22;;;;;;;7.22;1.38;;;0.40;99.90;;;;;;5039614;28;20053;-67
2023/01/20 07:38:49;;;;;;;6.30;1.77;;;0.40;99.90;;;;;;5018228;28;20069;-68
2023/01/20 07:41:18;;;;;;;5.15;1.80;;;0.40;99.90;;;;;;5020080;28;20095;-68
2023/01/20 07:43:46;;;;;;;12.75;3.85;;;0.40;99.90;;;;;;5024145;28;20053;-68
2023/01/20 07:46:13;;;;;;;8.73;2.42;;;0.40;99.90;;;;;;5015985;28;20144;-68
2023/01/20 07:48:40;;;;;;;4.80;1.38;;;0.50;99.90;;;;;;5025175;28;20050;-67
2023/01/20 07:51:08;;;;;;;7.68;2.20;;;0.50;99.90;;;;;;5016986;28;20091;-69
2023/01/20 07:53:45;;;;;;;18.55;3.67;;;0.50;99.90;;;;;;5026120;28;20461;-69
2023/01/20 07:56:14;;;;;;;8.35;1.95;;;0.60;99.90;;;;;;5019379;28;20161;-71
2023/01/20 07:58:43;;;;;;;4.85;1.60;;;0.60;99.90;;;;;;5010613;28;20479;-70
2023/01/20 08:01:20;;;;;;;5.75;1.50;;;0.60;99.90;;;;;;5018208;28;20072;-70
2023/01/20 08:03:47;;;;;;;8.23;2.00;;;0.70;99.90;;;;;;5028880;28;20053;-70
2023/01/20 08:06:15;;;;;;;17.92;2.17;;;0.60;99.90;;;;;;4675879;28;9999755;-70
2023/01/20 08:08:42;;;;;;;5.25;1.52;;;0.60;99.90;;;;;;5043020;28;20408;-70
2023/01/20 08:11:24;;;;;;;15.57;2.20;;;0.60;99.90;;;;;;5011822;28;20053;-70
2023/01/20 08:26:08;;;;;;;5.88;1.83;;;0.70;99.90;;;;;;5020036;28;20036;-70
2023/01/20 08:28:35;;;;;;;10.02;1.73;;;0.70;99.90;;;;;;5005158;28;20179;-70
2023/01/20 08:31:06;;;;;;;6.93;2.33;;;0.70;99.90;;;;;;5018048;28;20064;-71
2023/01/20 08:33:33;;;;;;;7.35;1.50;;;0.70;99.90;;;;;;5022581;28;20137;-71
2023/01/20 08:36:23;;;;;;;3.92;1.70;;;0.70;99.90;;;;;;5002978;28;20056;-70
2023/01/20 08:38:50;;;;;;;12.90;2.13;;;0.80;99.90;;;;;;5005098;28;20226;-70
2023/01/20 08:41:22;;;;;;;6.53;1.88;;;0.80;99.90;;;;;;5004154;28;20076;-69
2023/01/20 08:43:49;;;;;;;8.20;2.15;;;0.80;99.90;;;;;;5005717;28;20163;-70
2023/01/20 08:46:16;;;;;;;7.53;1.52;;;0.80;99.90;;;;;;5005517;28;20056;-70
2023/01/20 08:48:43;;;;;;;5.25;1.50;;;1.30;99.90;;;;;;4993980;28;20086;-70
2023/01/20 08:51:18;;;;;;;9.40;1.60;;;0.90;99.90;;;;;;5010837;28;20064;-70
2023/01/20 08:53:45;;;;;;;11.18;2.17;;;1.00;99.90;;;;;;5011949;28;20085;-70
2023/01/20 08:56:12;;;;;;;3.65;1.67;;;1.10;99.90;;;;;;5001631;28;20054;-70
2023/01/20 08:58:39;;;;;;;7.95;2.15;;;1.00;99.90;;;;;;5006282;28;20056;-70
2023/01/20 09:01:08;;;;;;;9.70;2.20;;;1.00;99.90;;;;;;5004453;28;20052;-70
2023/01/20 09:03:35;;;;;;;5.38;1.77;;;1.00;99.90;;;;;;4999175;28;20050;-70
2023/01/20 09:06:02;;;;;;;7.07;1.83;;;1.10;99.90;;;;;;4989054;28;20068;-70
2023/01/20 09:08:29;;;;;;;7.95;2.10;;;1.10;99.90;;;;;;4996265;28;20477;-70
2023/01/20 09:11:03;;;;;;;7.93;2.47;;;1.10;99.90;;;;;;5006244;28;20060;-70
2023/01/20 09:13:30;;;;;;;11.25;2.28;;;1.20;99.90;;;;;;5004173;28;20818;-71
2023/01/20 09:15:57;;;;;;;5.30;1.98;;;1.20;99.90;;;;;;5008563;28;20106;-70
2023/01/20 09:18:24;;;;;;;7.78;3.17;;;1.20;99.90;;;;;;5007714;28;20057;-70
2023/01/20 09:20:51;;;;;;;16.20;2.35;;;1.30;99.90;;;;;;5009080;28;20481;-70
2023/01/20 09:23:20;;;;;;;8.45;1.90;;;1.30;99.90;;;;;;4999432;28;20056;-69
2023/01/20 09:25:47;;;;;;;17.45;3.45;;;1.40;99.90;;;;;;5008607;28;20054;-69
2023/01/20 09:28:14;;;;;;;35.05;4.25;;;1.40;99.90;;;;;;5004067;28;20053;-70
2023/01/20 09:30:41;;;;;;;38.00;4.32;;;1.50;99.90;;;;;;4997694;28;20537;-70
2023/01/20 09:33:12;;;;;;;21.35;2.85;;;1.50;99.90;;;;;;5003842;28;20052;-70
2023/01/20 09:35:39;;;;;;;21.20;3.40;;;1.60;99.90;;;;;;4990775;28;20137;-70
2023/01/20 09:44:15;;;;;;;8.82;2.38;;;1.70;99.90;;;;;;4995031;28;20408;-69
2023/01/20 09:47:20;;;;;;;8.80;1.90;;;1.80;99.90;;;;;;5008172;28;20129;-69
2023/01/20 09:53:03;;;;;;;10.50;2.92;;;1.90;99.90;;;;;;5005331;28;20096;-70
2023/01/20 09:55:52;;;;;;;17.10;4.85;;;1.90;99.90;;;;;;4998317;28;20536;-71
2023/01/20 09:58:43;;;;;;;19.85;3.30;;;2.00;99.90;;;;;;5009130;28;20082;-70
2023/01/20 10:01:10;;;;;;;14.20;2.85;;;2.10;99.90;;;;;;5006249;28;20129;-69
2023/01/20 10:03:51;;;;;;;12.60;2.55;;;2.20;99.90;;;;;;5003535;28;20072;-69
2023/01/20 10:06:46;;;;;;;19.88;4.05;;;2.30;99.90;;;;;;5009131;28;20114;-71
2023/01/20 10:09:26;;;;;;;10.50;2.78;;;2.30;99.90;;;;;;5000897;28;20046;-69
2023/01/20 10:11:58;;;;;;;13.32;2.35;;;2.40;99.90;;;;;;5004847;28;20050;-70
2023/01/20 10:14:34;;;;;;;8.23;2.35;;;2.50;99.90;;;;;;5004360;28;20398;-70
2023/01/20 10:17:09;;;;;;;12.05;2.28;;;2.50;99.90;;;;;;5014765;28;20429;-70
2023/01/20 10:19:41;;;;;;;7.32;1.92;;;2.60;99.90;;;;;;5013247;28;20124;-70
2023/01/20 10:22:14;;;;;;;8.27;2.28;;;2.60;99.90;;;;;;5008007;28;20046;-70
2023/01/20 10:25:05;;;;;;;13.60;3.10;;;2.70;99.90;;;;;;5006698;28;20074;-69
2023/01/20 10:27:32;;;;;;;5.25;1.88;;;2.80;99.90;;;;;;5000818;28;20283;-70
2023/01/20 10:30:11;;;;;;;7.57;2.20;;;2.80;99.90;;;;;;5003559;28;20125;-69
2023/01/20 10:32:44;;;;;;;5.70;2.25;;;2.90;99.90;;;;;;5007394;28;20050;-69
2023/01/20 10:35:26;;;;;;;4.63;2.17;;;3.10;99.90;;;;;;5005625;28;20076;-70
2023/01/20 10:37:54;;;;;;;7.50;2.55;;;3.00;99.90;;;;;;5005187;28;20064;-70
2023/01/20 10:40:27;;;;;;;7.00;2.42;;;3.10;99.90;;;;;;5005745;28;20045;-67
2023/01/20 10:42:56;;;;;;;9.40;3.05;;;3.10;99.90;;;;;;5008056;28;20058;-69
2023/01/20 10:45:37;;;;;;;10.38;2.85;;;3.20;99.90;;;;;;5008520;28;20185;-70
2023/01/20 10:48:33;;;;;;;11.40;3.25;;;3.30;99.90;;;;;;5004733;28;20056;-70
2023/01/20 10:51:11;;;;;;;13.80;4.25;;;3.30;99.90;;;;;;4986110;28;20041;-69
2023/01/20 10:54:12;;;;;;;8.27;2.95;;;3.40;99.90;;;;;;5003203;28;20140;-69
2023/01/20 10:56:52;;;;;;;10.40;2.72;;;3.60;99.90;;;;;;5005758;28;20056;-70
2023/01/20 10:59:49;;;;;;;8.30;3.35;;;3.70;99.90;;;;;;5004497;28;20054;-69
2023/01/20 11:02:26;;;;;;;11.55;2.83;;;3.80;99.90;;;;;;5013874;28;20042;-69
2023/01/20 11:05:22;;;;;;;9.88;2.33;;;3.90;99.90;;;;;;5005564;28;20682;-70
2023/01/20 11:07:49;;;;;;;10.25;2.30;;;3.90;99.90;;;;;;4998161;28;20512;-74
2023/01/20 11:10:18;;;;;;;5.00;2.58;;;3.90;99.90;;;;;;5007041;28;20046;-70
2023/01/20 11:12:46;;;;;;;14.00;3.42;;;3.90;99.90;;;;;;5008213;28;20064;-70
2023/01/20 11:15:26;;;;;;;7.07;2.38;;;3.90;99.90;;;;;;4989124;28;20050;-70
2023/01/20 11:18:15;;;;;;;7.88;2.75;;;4.00;99.90;;;;;;5004463;28;20138;-70
2023/01/20 11:20:51;;;;;;;19.10;6.63;;;4.00;99.90;;;;;;5007114;28;20129;-69
2023/01/20 11:23:33;;;;;;;9.30;2.60;;;4.10;99.90;;;;;;5002152;28;20068;-70
2023/01/20 11:26:01;;;;;;;9.43;3.22;;;4.10;99.90;;;;;;5007205;28;20077;-70
2023/01/20 11:28:31;;;;;;;6.70;2.00;;;4.20;99.90;;;;;;5005339;28;20052;-70
2023/01/20 11:30:58;;;;;;;18.80;3.13;;;4.20;99.90;;;;;;4989126;28;20064;-70
2023/01/20 11:33:27;;;;;;;10.82;2.42;;;4.30;99.90;;;;;;4998057;28;20049;-70
2023/01/20 11:36:05;;;;;;;5.20;2.72;;;4.40;99.90;;;;;;5006933;28;20053;-71
2023/01/20 11:38:41;;;;;;;8.20;2.80;;;4.50;99.90;;;;;;5006189;28;20057;-70
2023/01/20 11:41:29;;;;;;;8.98;2.95;;;4.50;99.90;;;;;;5007342;28;20080;-70
2023/01/20 11:43:57;;;;;;;14.32;3.33;;;4.50;99.90;;;;;;5000108;28;20056;-70
2023/01/20 11:46:30;;;;;;;15.73;3.70;;;4.60;99.90;;;;;;5007404;28;20054;-70
2023/01/20 11:49:16;;;;;;;7.07;3.20;;;4.60;99.90;;;;;;5007615;28;20054;-70
2023/01/20 11:51:48;;;;;;;6.80;2.92;;;4.60;99.90;;;;;;5006729;28;20050;-70
2023/01/20 11:54:20;;;;;;;13.15;3.13;;;4.60;99.90;;;;;;4997627;28;20833;-70
2023/01/20 11:56:50;;;;;;;17.83;5.72;;;4.60;99.90;;;;;;5005838;28;20060;-70
2023/01/20 11:59:25;;;;;;;15.30;3.53;;;4.70;99.90;;;;;;5021918;28;20060;-72
2023/01/20 12:02:00;;;;;;;8.00;5.03;;;4.80;99.90;;;;;;5005125;28;20108;-70
2023/01/20 12:04:49;;;;;;;5.32;2.40;;;4.80;99.90;;;;;;4658253;28;10000292;-71
2023/01/20 12:07:19;;;;;;;14.13;3.13;;;4.90;99.90;;;;;;5004688;28;20827;-70
2023/01/20 12:09:47;;;;;;;6.45;3.15;;;4.90;99.90;;;;;;5001765;28;20058;-70
2023/01/20 12:12:55;;;;;;;16.65;2.60;;;4.90;99.90;;;;;;4988485;28;20077;-70
2023/01/20 12:15:30;;;;;;;7.15;2.85;;;5.00;99.90;;;;;;4998564;28;20456;-71
2023/01/20 12:18:29;;;;;;;10.63;2.20;;;5.10;99.90;;;;;;5000965;28;20458;-71
2023/01/20 12:21:16;;;;;;;9.98;2.80;;;5.10;99.90;;;;;;4990126;28;20056;-71
2023/01/20 12:23:51;;;;;;;9.55;4.20;;;5.20;99.90;;;;;;5004429;28;20267;-70
2023/01/20 12:26:19;;;;;;;16.80;5.25;;;5.30;99.90;;;;;;4990485;28;20054;-70
2023/01/20 12:29:03;;;;;;;9.35;2.90;;;5.40;99.90;;;;;;4996231;28;20077;-71
2023/01/20 12:31:33;;;;;;;12.65;2.65;;;5.40;99.90;;;;;;4978496;28;20081;-71
2023/01/20 12:34:02;;;;;;;9.30;2.72;;;5.60;99.90;;;;;;4996881;28;20046;-70
2023/01/20 12:36:38;;;;;;;5.15;1.73;;;5.60;99.90;;;;;;5000225;28;20070;-70
2023/01/20 12:39:10;;;;;;;7.47;2.88;;;5.60;99.90;;;;;;5003291;28;20111;-71
2023/01/20 12:41:44;;;;;;;11.25;2.58;;;5.60;99.90;;;;;;5004153;28;20493;-71
2023/01/20 12:44:17;;;;;;;13.32;1.95;;;5.70;99.90;;;;;;5000015;28;20054;-71
2023/01/20 12:46:56;;;;;;;10.10;2.03;;;5.50;99.90;;;;;;5005712;28;20058;-71
2023/01/20 12:49:46;;;;;;;14.90;2.33;;;5.50;99.90;;;;;;5002318;28;20069;-71
2023/01/20 12:52:39;;;;;;;9.15;2.08;;;5.50;99.90;;;;;;5000147;28;20049;-71
2023/01/20 12:55:12;;;;;;;13.20;2.72;;;5.60;99.90;;;;;;4997264;28;20054;-70
2023/01/20 12:57:42;;;;;;;10.52;1.88;;;5.60;99.90;;;;;;5000555;28;20053;-69
2023/01/20 13:00:30;;;;;;;11.85;2.30;;;5.60;99.90;;;;;;5003432;28;20476;-70
2023/01/20 13:03:05;;;;;;;10.95;3.20;;;5.60;99.90;;;;;;4988910;28;20425;-70
2023/01/20 13:05:56;;;;;;;10.88;2.10;;;5.70;99.90;;;;;;5003025;28;20444;-69
2023/01/20 13:08:47;;;;;;;6.70;2.08;;;5.70;99.90;;;;;;5003456;28;20128;-69
2023/01/20 13:11:28;;;;;;;5.13;2.38;;;5.60;99.90;;;;;;4996872;28;20074;-70
2023/01/20 13:14:13;;;;;;;7.63;1.92;;;5.60;99.90;;;;;;5010215;28;20053;-72
2023/01/20 13:16:54;;;;;;;5.57;1.73;;;5.60;99.90;;;;;;5007946;28;20064;-71
2023/01/20 13:19:28;;;;;;;12.82;2.00;;;5.70;99.90;;;;;;4990447;28;20038;-71
2023/01/20 13:21:55;;;;;;;;;;;5.80;99.90;;;;;;5009131;28;20488;-70
2023/01/20 13:24:33;;;;;;;4.18;1.90;;;5.80;99.90;;;;;;5006081;28;20011;-70
2023/01/20 13:27:00;;;;;;;11.98;2.22;;;5.90;99.90;;;;;;5005942;28;20408;-70
2023/01/20 13:29:36;;;;;;;10.65;2.40;;;5.90;99.90;;;;;;5008109;28;20049;-72
2023/01/20 13:32:03;;;;;;;8.30;2.45;;;6.00;99.90;;;;;;5007034;28;20046;-70
2023/01/20 13:34:31;;;;;;;6.50;2.20;;;6.00;99.90;;;;;;4989595;28;20049;-71
2023/01/20 13:37:06;;;;;;;14.57;2.45;;;6.00;99.90;;;;;;5005017;28;20046;-70
2023/01/20 13:39:44;;;;;;;14.35;2.78;;;6.10;99.90;;;;;;5004686;28;20093;-70
2023/01/20 13:42:26;;;;;;;12.45;2.35;;;6.10;99.90;;;;;;4997927;28;20068;-70